createdAt,value
2023-02-27T00:01:41.167Z,4.80
2023-02-27T00:06:43.883Z,3.30
2023-02-27T00:11:46.768Z,6.40
2023-02-27T00:16:49.501Z,3.60
2023-02-27T00:21:52.779Z,3.30
2023-02-27T00:26:55.483Z,4.20
2023-02-27T00:31:58.793Z,4.80
2023-02-27T00:37:01.596Z,7.70
2023-02-27T00:42:04.549Z,4.40
2023-02-27T00:47:07.451Z,5.20
2023-02-27T00:52:11.224Z,3.80
2023-02-27T00:57:14.054Z,6.10
2023-02-27T01:02:17.390Z,6.80
2023-02-27T01:07:20.155Z,6.90
2023-02-27T01:12:23.044Z,5.00
2023-02-27T01:17:25.853Z,4.90
2023-02-27T01:22:28.658Z,5.00
2023-02-27T01:27:32.281Z,4.10
2023-02-27T01:32:35.124Z,3.60
2023-02-27T01:37:38.168Z,5.20
2023-02-27T01:42:41.061Z,3.60
2023-02-27T01:47:52.502Z,5.00
2023-02-27T01:52:58.989Z,8.70
2023-02-27T01:58:01.698Z,8.30
2023-02-27T02:03:25.926Z,8.50
2023-02-27T02:08:32.072Z,7.80
2023-02-27T02:13:35.430Z,5.90
2023-02-27T02:18:46.280Z,6.40
2023-02-27T02:24:08.013Z,4.90
2023-02-27T02:29:38.815Z,4.30
2023-02-27T02:35:00.173Z,5.70
2023-02-27T02:40:16.821Z,4.80
2023-02-27T02:45:38.376Z,6.00
2023-02-27T02:51:04.626Z,5.10
2023-02-27T02:56:23.294Z,3.40
2023-02-27T03:01:35.476Z,3.40
2023-02-27T03:06:43.417Z,5.00
2023-02-27T03:11:50.676Z,3.80
2023-02-27T03:16:58.163Z,3.90
2023-02-27T03:22:09.567Z,4.80
2023-02-27T03:27:13.191Z,6.50
2023-02-27T03:32:25.226Z,4.80
2023-02-27T03:37:52.376Z,6.80
2023-02-27T03:43:06.203Z,5.70
2023-02-27T03:48:09.240Z,3.90
2023-02-27T03:53:23.819Z,3.10
2023-02-27T03:58:26.822Z,4.90
2023-02-27T04:03:33.095Z,4.20
2023-02-27T04:09:04.983Z,6.30
2023-02-27T04:14:29.400Z,8.20
2023-02-27T04:19:44.083Z,5.70
2023-02-27T04:25:06.269Z,6.80
2023-02-27T04:30:42.902Z,7.70
2023-02-27T04:35:53.956Z,5.50
2023-02-27T04:41:09.850Z,5.70
2023-02-27T04:46:16.551Z,5.70
2023-02-27T04:51:25.203Z,11.40
2023-02-27T04:56:34.428Z,11.20
2023-02-27T05:01:42.127Z,10.70
2023-02-27T05:06:48.177Z,12.90
2023-02-27T05:11:59.702Z,14.60
2023-02-27T05:17:09.080Z,12.30
2023-02-27T05:22:25.191Z,11.50
2023-02-27T05:27:37.687Z,13.00
2023-02-27T05:32:49.237Z,15.60
2023-02-27T05:38:05.411Z,14.40
2023-02-27T05:43:22.990Z,14.00
2023-02-27T05:49:11.676Z,12.20
2023-02-27T05:54:24.941Z,14.80
2023-02-27T05:59:53.766Z,18.40
2023-02-27T06:04:56.624Z,15.90
2023-02-27T06:09:59.397Z,10.70
2023-02-27T06:15:02.178Z,15.10
2023-02-27T06:20:06.972Z,14.80
2023-02-27T06:25:10.214Z,18.80
2023-02-27T06:30:14.057Z,10.80
2023-02-27T06:35:17.116Z,12.90
2023-02-27T06:40:19.923Z,15.50
2023-02-27T06:45:24.410Z,8.70
2023-02-27T06:50:27.682Z,14.80
2023-02-27T06:55:30.478Z,15.80
2023-02-27T07:00:33.569Z,15.20
2023-02-27T07:05:36.546Z,20.70
2023-02-27T07:10:40.168Z,24.20
2023-02-27T07:15:44.741Z,13.80
2023-02-27T07:20:50.220Z,12.40
2023-02-27T07:25:52.931Z,10.00
2023-02-27T07:30:56.398Z,8.20
2023-02-27T07:35:59.819Z,9.70
2023-02-27T07:41:02.773Z,11.90
2023-02-27T07:46:05.788Z,8.50
2023-02-27T07:51:08.886Z,6.80
2023-02-27T07:56:11.869Z,5.00
2023-02-27T08:01:15.098Z,8.50
2023-02-27T08:06:18.105Z,5.80
2023-02-27T08:11:20.878Z,4.70
2023-02-27T08:16:23.660Z,3.70
2023-02-27T08:21:29.095Z,4.50
2023-02-27T08:26:32.325Z,4.10
2023-02-27T08:31:35.220Z,5.00
2023-02-27T08:36:39.272Z,4.20
2023-02-27T08:41:42.037Z,3.90
2023-02-27T08:46:45.228Z,3.20
2023-02-27T08:51:47.910Z,4.60
2023-02-27T08:56:50.706Z,3.90
2023-02-27T09:01:53.670Z,3.00
2023-02-27T09:06:58.088Z,2.10
2023-02-27T09:12:00.757Z,2.30
2023-02-27T09:17:03.662Z,3.00
2023-02-27T09:22:06.477Z,3.30
2023-02-27T09:27:09.279Z,4.30
2023-02-27T09:32:12.696Z,1.90
2023-02-27T09:37:16.565Z,2.30
2023-02-27T09:42:24.619Z,2.80
2023-02-27T09:47:37.385Z,2.50
2023-02-27T09:52:40.189Z,4.60
2023-02-27T09:57:52.101Z,3.60
2023-02-27T10:02:58.839Z,2.20
2023-02-27T10:08:40.208Z,3.00
2023-02-27T10:13:50.686Z,1.90
2023-02-27T10:19:06.297Z,3.00
2023-02-27T10:24:34.344Z,1.80
2023-02-27T10:29:41.721Z,2.60
2023-02-27T10:34:54.031Z,2.60
2023-02-27T10:40:01.251Z,3.60
2023-02-27T10:45:05.942Z,3.30
2023-02-27T10:50:27.209Z,4.10
2023-02-27T10:55:33.079Z,2.20
2023-02-27T11:00:45.304Z,9.50
2023-02-27T11:06:00.721Z,2.60
2023-02-27T11:11:07.179Z,3.50
2023-02-27T11:16:15.410Z,3.50
2023-02-27T11:21:20.521Z,2.20
2023-02-27T11:26:36.353Z,2.80
2023-02-27T11:31:39.985Z,2.90
2023-02-27T11:36:46.625Z,2.20
2023-02-27T11:41:50.199Z,1.60
2023-02-27T11:47:08.588Z,2.00
2023-02-27T11:52:20.994Z,3.50
2023-02-27T11:57:38.651Z,2.90
2023-02-27T12:02:53.467Z,2.50
2023-02-27T12:08:06.680Z,4.30
2023-02-27T12:13:21.335Z,2.10
2023-02-27T12:18:28.568Z,2.10
2023-02-27T12:23:41.718Z,4.10
2023-02-27T12:28:44.520Z,2.70
2023-02-27T12:34:01.770Z,3.20
2023-02-27T12:39:05.510Z,3.00
2023-02-27T12:44:33.267Z,2.20
2023-02-27T12:49:56.529Z,3.30
2023-02-27T12:55:06.216Z,5.30
2023-02-27T13:00:15.170Z,2.40
2023-02-27T13:05:33.028Z,2.30
2023-02-27T13:11:13.019Z,3.70
2023-02-27T13:16:25.972Z,2.10
2023-02-27T13:21:51.472Z,2.20
2023-02-27T13:27:24.230Z,3.80
2023-02-27T13:32:46.778Z,2.40
2023-02-27T13:38:32.530Z,2.50
2023-02-27T13:43:51.128Z,3.00
2023-02-27T13:49:28.080Z,3.70
2023-02-27T13:54:33.990Z,2.10
2023-02-27T13:59:41.902Z,2.80
2023-02-27T14:04:50.949Z,1.60
2023-02-27T14:10:04.394Z,4.80
2023-02-27T14:15:30.545Z,3.60
2023-02-27T14:20:33.233Z,5.10
2023-02-27T14:25:40.145Z,3.60
2023-02-27T14:30:51.486Z,4.70
2023-02-27T14:36:04.321Z,3.10
2023-02-27T14:41:12.653Z,3.40
2023-02-27T14:46:35.237Z,8.90
2023-02-27T14:51:38.637Z,5.00
2023-02-27T14:56:52.895Z,4.30
2023-02-27T15:01:58.429Z,5.80
2023-02-27T15:07:01.562Z,4.90
2023-02-27T15:12:05.107Z,6.00
2023-02-27T15:17:23.125Z,4.70
2023-02-27T15:22:38.882Z,4.40
2023-02-27T15:27:42.610Z,7.30
2023-02-27T15:32:45.335Z,7.00
2023-02-27T15:37:55.030Z,8.20
2023-02-27T15:42:59.558Z,11.50
2023-02-27T15:48:04.105Z,7.80
2023-02-27T15:53:25.525Z,9.60
2023-02-27T15:58:37.614Z,9.00
2023-02-27T16:03:45.048Z,9.40
2023-02-27T16:09:01.665Z,9.70
2023-02-27T16:14:06.162Z,8.50
2023-02-27T16:19:27.414Z,9.40
2023-02-27T16:24:32.032Z,10.30
2023-02-27T16:29:37.267Z,9.60
2023-02-27T16:34:45.488Z,11.80
2023-02-27T16:39:52.285Z,14.90
2023-02-27T16:44:55.126Z,10.30
2023-02-27T16:49:58.350Z,13.30
2023-02-27T16:55:01.524Z,16.20
2023-02-27T17:00:08.955Z,19.00
2023-02-27T17:05:11.774Z,19.30
2023-02-27T17:10:17.108Z,24.70
2023-02-27T17:15:21.031Z,20.90
2023-02-27T17:20:26.180Z,25.00
2023-02-27T17:25:29.189Z,21.80
2023-02-27T17:30:31.962Z,16.90
2023-02-27T17:35:34.884Z,13.30
2023-02-27T17:40:39.391Z,15.00
2023-02-27T17:45:42.316Z,14.00
2023-02-27T17:50:45.338Z,12.30
2023-02-27T17:55:48.353Z,28.20
2023-02-27T18:00:51.162Z,15.60
2023-02-27T18:05:53.895Z,17.50
2023-02-27T18:10:56.655Z,24.10
2023-02-27T18:15:59.448Z,23.70
2023-02-27T18:21:05.307Z,24.30
2023-02-27T18:26:17.196Z,29.50
2023-02-27T18:31:30.397Z,28.40
2023-02-27T18:36:34.368Z,34.90
2023-02-27T18:41:37.923Z,33.80
2023-02-27T18:46:42.507Z,31.70
2023-02-27T18:51:45.484Z,34.70
2023-02-27T18:56:51.099Z,32.30
2023-02-27T19:01:55.210Z,28.00
2023-02-27T19:06:57.925Z,35.30
2023-02-27T19:12:01.004Z,27.60
2023-02-27T19:17:04.315Z,24.80
2023-02-27T19:22:07.112Z,27.10
2023-02-27T19:27:10.822Z,22.40
2023-02-27T19:32:14.827Z,18.90
2023-02-27T19:37:17.825Z,19.50
2023-02-27T19:42:20.575Z,16.40
2023-02-27T19:47:24.004Z,14.10
2023-02-27T19:52:26.905Z,13.50
2023-02-27T19:57:29.636Z,15.10
2023-02-27T20:02:32.721Z,12.60
2023-02-27T20:07:35.605Z,12.20
2023-02-27T20:12:38.317Z,21.80
2023-02-27T20:17:42.185Z,22.30
2023-02-27T20:22:44.968Z,22.40
2023-02-27T20:27:48.237Z,18.30
2023-02-27T20:32:51.087Z,21.30
2023-02-27T20:37:54.154Z,21.90
2023-02-27T20:42:57.674Z,22.20
2023-02-27T20:48:00.351Z,21.30
2023-02-27T20:53:03.141Z,17.00
2023-02-27T20:58:05.947Z,23.10
2023-02-27T21:03:08.712Z,21.30
2023-02-27T21:08:11.556Z,29.60
2023-02-27T21:13:14.684Z,38.80
2023-02-27T21:18:17.377Z,35.10
2023-02-27T21:23:20.068Z,34.40
2023-02-27T21:28:23.192Z,44.20
2023-02-27T21:33:26.554Z,43.60
2023-02-27T21:38:30.135Z,43.80
2023-02-27T21:43:34.079Z,31.20
2023-02-27T21:48:37.789Z,39.10
2023-02-27T21:53:40.578Z,47.60
2023-02-27T21:58:43.268Z,47.00
2023-02-27T22:03:47.615Z,33.10
2023-02-27T22:08:58.614Z,45.70
2023-02-27T22:14:01.820Z,41.10
2023-02-27T22:19:09.840Z,49.90
2023-02-27T22:24:12.566Z,41.80
2023-02-27T22:29:15.533Z,63.20
2023-02-27T22:34:19.215Z,75.70
2023-02-27T22:39:22.289Z,98.50
2023-02-27T22:44:25.083Z,99.60
2023-02-27T22:49:27.792Z,108.60
2023-02-27T22:54:30.784Z,87.90
2023-02-27T22:59:33.587Z,72.60
2023-02-27T23:04:36.390Z,73.90
2023-02-27T23:09:39.185Z,57.90
2023-02-27T23:14:42.136Z,63.50
2023-02-27T23:19:46.031Z,54.80
2023-02-27T23:24:48.820Z,56.60
2023-02-27T23:29:51.622Z,54.70
2023-02-27T23:34:54.303Z,66.00
2023-02-27T23:39:57.019Z,63.40
2023-02-27T23:44:59.767Z,59.20
2023-02-27T23:50:02.617Z,62.60
2023-02-27T23:55:06.778Z,65.00
